Time;durP1;ratioP1;P1;durP2;ratioP2;P2;SDS_P1;SDS_P2;PMS_P1;PMS_P2;Temp;Humidity;BMP_temperature;BMP_pressure;BME280_temperature;BME280_humidity;BME280_pressure;Samples;Min_cycle;Max_cycle;Signal;HPM_P1;HPM_P2
2021/12/13 00:01:37;;;;;;;;;;;;;;;9.31;100.00;102528.81;5085044;28;19961;-72
2021/12/13 00:04:11;;;;;;;;;;;;;;;9.27;100.00;102525.19;5086398;28;19916;-73
2021/12/13 00:06:45;;;;;;;;;;;;;;;9.25;100.00;102526.78;5086447;28;20007;-72
2021/12/13 00:09:13;;;;;;;;;;;;;;;9.27;100.00;102527.75;5091070;28;19990;-72
2021/12/13 00:11:41;;;;;;;;;;;;;;;9.24;100.00;102527.56;5091396;28;20232;-72
2021/12/13 00:14:12;;;;;;;;;;;;;;;9.22;100.00;102525.69;5087612;28;19962;-72
2021/12/13 00:16:39;;;;;;;;;;;;;;;9.19;100.00;102523.84;5082590;28;19912;-72
2021/12/13 00:19:10;;;;;;;;;;;;;;;9.22;100.00;102524.03;5090896;28;19908;-72
2021/12/13 00:21:40;;;;;;;;;;;;;;;9.28;100.00;102526.06;5091532;28;20263;-72
2021/12/13 00:24:20;;;;;;;;;;;;;;;9.19;100.00;102517.81;5094232;28;19916;-72
2021/12/13 00:26:47;;;;;;;;;;;;;;;9.16;100.00;102520.19;5091325;28;19912;-72
2021/12/13 00:29:20;;;;;;;;;;;;;;;9.13;100.00;102537.19;5090985;28;19912;-72
2021/12/13 00:31:49;;;;;;;;;;;;;;;9.14;100.00;102531.25;5073001;28;19973;-72
2021/12/13 00:34:19;;;;;;;;;;;;;;;9.12;100.00;102530.28;5090081;28;19948;-72
2021/12/13 00:36:49;;;;;;;;;;;;;;;9.14;100.00;102528.69;5086865;28;19920;-72
2021/12/13 00:39:18;;;;;;;;;;;;;;;9.11;100.00;102537.91;5082368;28;19962;-72
2021/12/13 00:41:44;;;;;;;;;;;;;;;9.11;100.00;102543.03;5085303;28;19912;-72
2021/12/13 00:44:18;;;;;;;;;;;;;;;9.07;100.00;102536.81;5083637;28;19923;-72
2021/12/13 00:46:46;;;;;;;;;;;;;;;9.05;100.00;102546.13;5089260;28;19920;-73
2021/12/13 00:49:13;;;;;;;;;;;;;;;9.11;100.00;102543.91;5083019;28;19912;-73
2021/12/13 00:51:43;;;;;;;;;;;;;;;9.11;100.00;102550.75;5094045;28;19916;-73
2021/12/13 00:54:23;;;;;;;;;;;;;;;9.09;100.00;102549.72;5089903;28;19907;-72
2021/12/13 00:56:55;;;;;;;;;;;;;;;9.07;100.00;102551.34;5094586;28;19926;-72
2021/12/13 00:59:26;;;;;;;;;;;;;;;9.03;100.00;102549.38;5089694;28;19942;-72
2021/12/13 01:01:57;;;;;;;;;;;;;;;9.05;100.00;102555.50;5089849;28;19911;-72
2021/12/13 01:04:23;;;;;;;;;;;;;;;9.07;100.00;102552.22;5091783;28;19916;-72
2021/12/13 01:07:14;;;;;;;;;;;;;;;9.03;100.00;102549.38;5089952;28;19934;-71
2021/12/13 01:09:45;;;;;;;;;;;;;;;9.01;100.00;102548.38;5089224;28;20002;-72
2021/12/13 01:12:13;;;;;;;;;;;;;;;9.02;100.00;102550.16;5084880;28;19912;-73
2021/12/13 01:14:57;;;;;;;;;;;;;;;9.01;100.00;102546.72;5090585;28;19961;-73
2021/12/13 01:17:28;;;;;;;;;;;;;;;9.02;100.00;102556.19;5085329;28;19913;-73
2021/12/13 01:20:00;;;;;;;;;;;;;;;8.95;100.00;102548.00;5089156;28;19918;-73
2021/12/13 01:25:47;;;;;;;;;;;;;;;9.00;100.00;102557.78;5086369;28;20382;-73
2021/12/13 01:28:20;;;;;;;;;;;;;;;8.89;100.00;102557.91;5088370;28;19924;-72
2021/12/13 01:30:48;;;;;;;;;;;;;;;8.87;100.00;102565.50;5086379;28;20369;-72
2021/12/13 01:33:14;;;;;;;;;;;;;;;8.94;100.00;102562.53;5085239;28;19916;-72
2021/12/13 01:35:42;;;;;;;;;;;;;;;8.85;100.00;102570.53;5090132;28;20307;-72
2021/12/13 01:38:11;;;;;;;;;;;;;;;8.86;100.00;102563.75;5090647;28;19908;-72
2021/12/13 01:40:37;;;;;;;;;;;;;;;8.81;100.00;102570.25;5088543;28;20378;-72
2021/12/13 01:43:08;;;;;;;;;;;;;;;8.93;100.00;102568.47;5081899;28;19915;-72
2021/12/13 01:45:36;;;;;;;;;;;;;;;8.78;100.00;102576.06;5082558;28;19920;-72
2021/12/13 01:48:01;;;;;;;;;;;;;;;8.77;100.00;102575.97;5075593;28;19941;-74
2021/12/13 01:50:31;;;;;;;;;;;;;;;8.80;100.00;102579.63;5087156;28;20371;-72
2021/12/13 01:52:57;;;;;;;;;;;;;;;8.76;100.00;102587.91;5087027;28;20363;-72
2021/12/13 01:55:25;;;;;;;;;;;;;;;8.78;100.00;102578.63;5085430;28;19924;-72
2021/12/13 01:58:07;;;;;;;;;;;;;;;8.85;100.00;102583.34;5085821;28;20302;-72
2021/12/13 02:01:09;;;;;;;;;;;;;;;8.82;100.00;102578.03;5085993;28;19934;-73
2021/12/13 02:03:40;;;;;;;;;;;;;;;8.70;100.00;102579.84;5084259;28;19912;-73
2021/12/13 02:06:06;;;;;;;;;;;;;;;8.83;100.00;102584.94;5087073;28;19912;-72
2021/12/13 02:08:33;;;;;;;;;;;;;;;8.76;100.00;102592.16;5086776;28;20289;-72
2021/12/13 02:10:58;;;;;;;;;;;;;;;8.67;100.00;102597.59;5087866;28;20007;-73
2021/12/13 02:13:28;;;;;;;;;;;;;;;8.63;100.00;102589.63;5085833;28;20022;-72
2021/12/13 02:18:40;;;;;;;;;;;;;;;8.72;100.00;102582.50;5088572;28;19965;-72
2021/12/13 02:21:16;;;;;;;;;;;;;;;8.63;100.00;102585.38;5082844;28;19911;-71
2021/12/13 02:23:43;;;;;;;;;;;;;;;8.62;100.00;102585.28;5086839;28;19934;-72
2021/12/13 02:26:09;;;;;;;;;;;;;;;8.59;100.00;102580.84;5091594;28;19920;-72
2021/12/13 02:28:37;;;;;;;;;;;;;;;8.62;100.00;102581.03;5089376;28;21456;-73
2021/12/13 02:31:08;;;;;;;;;;;;;;;8.64;100.00;102579.44;5088721;28;19958;-73
2021/12/13 02:33:35;;;;;;;;;;;;;;;8.60;100.00;102578.34;5089942;28;19916;-73
2021/12/13 02:36:04;;;;;;;;;;;;;;;8.59;100.00;102574.03;5090369;28;19965;-73
2021/12/13 02:38:30;;;;;;;;;;;;;;;8.67;100.00;102574.50;5090507;28;19915;-72
2021/12/13 02:40:56;;;;;;;;;;;;;;;8.66;100.00;102579.53;5092722;28;19916;-72
2021/12/13 02:43:23;;;;;;;;;;;;;;;8.63;100.00;102566.53;5091854;28;19920;-72
2021/12/13 02:45:50;;;;;;;;;;;;;;;8.63;100.00;102571.66;5086274;28;20411;-72
2021/12/13 02:48:24;;;;;;;;;;;;;;;8.64;100.00;102578.56;5090748;28;20006;-72
2021/12/13 02:50:53;;;;;;;;;;;;;;;8.59;100.00;102588.53;5094030;28;19920;-73
2021/12/13 02:53:21;;;;;;;;;;;;;;;8.56;100.00;102586.66;5088854;28;19916;-72
2021/12/13 02:55:47;;;;;;;;;;;;;;;8.57;100.00;102582.44;5090001;28;19916;-72
2021/12/13 02:58:17;;;;;;;;;;;;;;;8.56;100.00;102586.66;5089903;28;19927;-72
2021/12/13 03:01:05;;;;;;;;;;;;;;;8.59;100.00;102578.28;5088746;28;19931;-72
2021/12/13 03:03:32;;;;;;;;;;;;;;;8.62;100.00;102582.72;5089653;28;19918;-71
2021/12/13 03:06:00;;;;;;;;;;;;;;;8.54;100.00;102583.09;5090796;28;19911;-72
2021/12/13 03:08:27;;;;;;;;;;;;;;;8.64;100.00;102583.69;5089119;28;19920;-72
2021/12/13 03:10:56;;;;;;;;;;;;;;;8.59;100.00;102584.28;5089626;28;19919;-71
2021/12/13 03:13:22;;;;;;;;;;;;;;;8.57;100.00;102575.63;5087524;28;19916;-72
2021/12/13 03:15:51;;;;;;;;;;;;;;;8.56;100.00;102585.78;5085328;28;20287;-72
2021/12/13 03:18:19;;;;;;;;;;;;;;;8.54;100.00;102585.66;5089092;28;19912;-72
2021/12/13 03:20:59;;;;;;;;;;;;;;;8.52;100.00;102584.69;5087983;28;19913;-73
2021/12/13 03:23:24;;;;;;;;;;;;;;;8.52;100.00;102587.25;5091661;28;19911;-72
2021/12/13 03:25:49;;;;;;;;;;;;;;;8.54;100.00;102588.22;5087029;28;19956;-72
2021/12/13 03:28:33;;;;;;;;;;;;;;;8.52;100.00;102589.81;5086641;28;19964;-73
2021/12/13 03:31:02;;;;;;;;;;;;;;;8.48;100.00;102585.28;5090628;28;20369;-73
2021/12/13 03:33:41;;;;;;;;;;;;;;;8.52;100.00;102586.38;5090249;28;19911;-72
2021/12/13 03:36:09;;;;;;;;;;;;;;;8.50;100.00;102593.97;5086073;28;19973;-73
2021/12/13 03:38:40;;;;;;;;;;;;;;;8.44;100.00;102587.56;5086124;28;20414;-71
2021/12/13 03:41:08;;;;;;;;;;;;;;;8.47;100.00;102593.75;5086989;28;19920;-73
2021/12/13 03:43:35;;;;;;;;;;;;;;;8.56;100.00;102590.91;5091399;28;19926;-73
2021/12/13 03:46:03;;;;;;;;;;;;;;;8.44;100.00;102590.13;5086752;28;19916;-72
2021/12/13 03:48:29;;;;;;;;;;;;;;;8.43;100.00;102584.09;5088802;28;19912;-72
2021/12/13 03:50:57;;;;;;;;;;;;;;;8.41;100.00;102585.69;5090565;28;19916;-72
2021/12/13 03:53:25;;;;;;;;;;;;;;;8.40;100.00;102585.59;5090400;28;19912;-73
2021/12/13 03:55:55;;;;;;;;;;;;;;;8.39;100.00;102589.81;5087582;28;20052;-72
2021/12/13 03:58:21;;;;;;;;;;;;;;;8.40;100.00;102593.28;5084021;28;20351;-73
2021/12/13 04:00:51;;;;;;;;;;;;;;;8.42;100.00;102604.50;5091240;28;19912;-73
2021/12/13 04:03:17;;;;;;;;;;;;;;;8.49;100.00;102593.84;5090338;28;19927;-73
2021/12/13 04:05:43;;;;;;;;;;;;;;;8.52;100.00;102589.81;5088193;28;19927;-74
2021/12/13 04:08:12;;;;;;;;;;;;;;;8.44;100.00;102588.44;5093684;28;19912;-74
2021/12/13 04:10:39;;;;;;;;;;;;;;;8.35;100.00;102590.38;5089505;28;20398;-71
2021/12/13 04:13:11;;;;;;;;;;;;;;;8.36;100.00;102592.19;5088986;28;19912;-72
2021/12/13 04:15:54;;;;;;;;;;;;;;;8.42;100.00;102592.56;5090211;28;19916;-72
2021/12/13 04:18:30;;;;;;;;;;;;;;;8.33;100.00;102595.41;5091553;28;19923;-72
2021/12/13 04:21:05;;;;;;;;;;;;;;;8.40;100.00;102593.28;5091454;28;19919;-72
2021/12/13 04:23:31;;;;;;;;;;;;;;;8.38;100.00;102595.75;5094214;28;20384;-73
2021/12/13 04:25:58;;;;;;;;;;;;;;;8.34;100.00;102596.28;5094249;28;19916;-73
2021/12/13 04:28:26;;;;;;;;;;;;;;;8.34;100.00;102591.16;5090860;28;19973;-73
2021/12/13 04:30:55;;;;;;;;;;;;;;;8.37;100.00;102603.31;5093872;28;20355;-73
2021/12/13 04:33:25;;;;;;;;;;;;;;;8.36;100.00;102597.31;5093268;28;19930;-73
2021/12/13 04:35:52;;;;;;;;;;;;;;;8.45;100.00;102608.16;5096055;28;19916;-73
2021/12/13 04:38:21;;;;;;;;;;;;;;;8.42;100.00;102597.69;5095476;28;19938;-72
2021/12/13 04:40:47;;;;;;;;;;;;;;;8.40;100.00;102598.41;5092408;28;19919;-73
2021/12/13 04:43:14;;;;;;;;;;;;;;;8.29;100.00;102593.44;5091292;28;19924;-73
2021/12/13 04:45:47;;;;;;;;;;;;;;;8.33;100.00;102591.97;5091770;28;20397;-73
2021/12/13 04:48:15;;;;;;;;;;;;;;;8.30;100.00;102589.19;5088530;28;19973;-73
2021/12/13 04:50:46;;;;;;;;;;;;;;;8.26;100.00;102587.22;5091158;28;20021;-73
2021/12/13 04:53:17;;;;;;;;;;;;;;;8.32;100.00;102587.63;5084521;28;19964;-73
2021/12/13 04:55:43;;;;;;;;;;;;;;;8.27;100.00;102599.25;5088802;28;20015;-73
2021/12/13 04:58:11;;;;;;;;;;;;;;;8.28;100.00;102593.34;5091131;28;19923;-73
2021/12/13 05:00:38;;;;;;;;;;;;;;;8.25;100.00;102596.59;5090960;28;19912;-73
2021/12/13 05:03:05;;;;;;;;;;;;;;;8.22;100.00;102592.94;5092265;28;19965;-73
2021/12/13 05:05:32;;;;;;;;;;;;;;;8.30;100.00;102594.31;5089048;28;20751;-72
2021/12/13 05:07:58;;;;;;;;;;;;;;;8.26;100.00;102597.47;5089388;28;19908;-73
2021/12/13 05:10:25;;;;;;;;;;;;;;;8.20;100.00;102591.97;5093964;28;19920;-72
2021/12/13 05:13:09;;;;;;;;;;;;;;;8.22;100.00;102593.81;5091197;28;19915;-72
2021/12/13 05:15:37;;;;;;;;;;;;;;;8.26;100.00;102605.19;5087735;28;19920;-72
2021/12/13 05:18:08;;;;;;;;;;;;;;;8.24;100.00;102604.16;5089669;28;19912;-73
2021/12/13 05:20:35;;;;;;;;;;;;;;;8.20;100.00;102602.22;5094125;28;19927;-73
2021/12/13 05:23:04;;;;;;;;;;;;;;;8.20;100.00;102597.97;5091790;28;19912;-73
2021/12/13 05:25:38;;;;;;;;;;;;;;;8.17;100.00;102596.88;5094738;28;19990;-72
2021/12/13 05:28:06;;;;;;;;;;;;;;;8.14;100.00;102602.69;5093022;28;20286;-72
2021/12/13 05:30:33;;;;;;;;;;;;;;;8.18;100.00;102602.09;5089907;28;19947;-72
2021/12/13 05:33:01;;;;;;;;;;;;;;;8.14;100.00;102600.13;5089438;28;19996;-72
2021/12/13 05:35:28;;;;;;;;;;;;;;;8.17;100.00;102602.00;5088218;28;20374;-73
2021/12/13 05:37:56;;;;;;;;;;;;;;;8.18;100.00;102611.44;5087186;28;19920;-73
2021/12/13 05:40:24;;;;;;;;;;;;;;;8.14;100.00;102602.69;5090350;28;19916;-72
2021/12/13 05:42:54;;;;;;;;;;;;;;;8.20;100.00;102608.22;5084934;28;19919;-72
2021/12/13 05:45:33;;;;;;;;;;;;;;;8.17;100.00;102607.13;5090193;28;19916;-73
2021/12/13 05:48:02;;;;;;;;;;;;;;;8.20;100.00;102599.66;5089368;28;19916;-73
2021/12/13 05:50:32;;;;;;;;;;;;;;;8.20;100.00;102599.66;5091381;28;20267;-72
2021/12/13 05:53:03;;;;;;;;;;;;;;;8.17;100.00;102602.88;5091905;28;19911;-73
2021/12/13 05:55:28;;;;;;;;;;;;;;;8.23;100.00;102602.41;5091283;28;19924;-73
2021/12/13 05:57:53;;;;;;;;;;;;;;;8.15;100.00;102612.16;5090155;28;19919;-73
2021/12/13 06:00:19;;;;;;;;;;;;;;;8.15;100.00;102604.47;5093880;28;20010;-73
2021/12/13 06:03:03;;;;;;;;;;;;;;;8.14;100.00;102606.94;5095656;28;19912;-73
2021/12/13 06:05:42;;;;;;;;;;;;;;;8.24;100.00;102614.41;5101086;28;19998;-72
2021/12/13 06:08:09;;;;;;;;;;;;;;;8.14;100.00;102605.25;5100291;28;19912;-73
2021/12/13 06:10:47;;;;;;;;;;;;;;;8.12;100.00;102608.50;5088445;28;19920;-73
2021/12/13 06:13:18;;;;;;;;;;;;;;;8.18;100.00;102614.91;5094927;28;20441;-72
2021/12/13 06:15:43;;;;;;;;;;;;;;;8.24;100.00;102609.28;5093489;28;20534;-73
2021/12/13 06:18:23;;;;;;;;;;;;;;;8.16;100.00;102608.78;5092051;28;19912;-72
2021/12/13 06:21:07;;;;;;;;;;;;;;;8.13;100.00;102612.81;5091116;28;19912;-73
2021/12/13 06:23:33;;;;;;;;;;;;;;;8.15;100.00;102616.41;5081049;28;19974;-72
2021/12/13 06:25:58;;;;;;;;;;;;;;;8.16;100.00;102613.03;5090423;28;19919;-72
2021/12/13 06:28:27;;;;;;;;;;;;;;;8.11;100.00;102620.41;5080128;28;20277;-72
2021/12/13 06:30:54;;;;;;;;;;;;;;;8.12;100.00;102628.97;5089041;28;19923;-73
2021/12/13 06:33:19;;;;;;;;;;;;;;;8.10;100.00;102625.44;5084464;28;19920;-73
2021/12/13 06:35:50;;;;;;;;;;;;;;;8.10;100.00;102622.88;5076512;28;20378;-73
2021/12/13 06:38:18;;;;;;;;;;;;;;;8.09;100.00;102628.78;5084657;28;19911;-73
2021/12/13 06:40:47;;;;;;;;;;;;;;;8.16;100.00;102643.78;5083779;28;19919;-72
2021/12/13 06:43:24;;;;;;;;;;;;;;;8.12;100.00;102636.66;5089195;28;19961;-72
2021/12/13 06:45:49;;;;;;;;;;;;;;;8.06;100.00;102632.91;5086185;28;19927;-73
2021/12/13 06:48:14;;;;;;;;;;;;;;;8.07;100.00;102631.28;5084155;28;19916;-73
2021/12/13 06:50:40;;;;;;;;;;;;;;;8.19;100.00;102626.94;5085463;28;19920;-73
2021/12/13 06:53:15;;;;;;;;;;;;;;;8.20;100.00;102632.97;5086042;28;19972;-73
2021/12/13 06:55:41;;;;;;;;;;;;;;;8.11;100.00;102624.66;5084903;28;19920;-72
2021/12/13 06:58:16;;;;;;;;;;;;;;;8.26;100.00;102639.38;5083320;28;19991;-73
2021/12/13 07:00:41;;;;;;;;;;;;;;;8.16;100.00;102634.41;5090848;28;19952;-73
2021/12/13 07:03:08;;;;;;;;;;;;;;;8.11;100.00;102647.72;5086514;28;20513;-73
2021/12/13 07:05:41;;;;;;;;;;;;;;;8.06;100.00;102650.84;5087885;28;19999;-72
2021/12/13 07:08:11;;;;;;;;;;;;;;;8.05;100.00;102650.75;5090137;28;19912;-73
2021/12/13 07:10:45;;;;;;;;;;;;;;;8.02;100.00;102654.00;5091145;28;19912;-73
2021/12/13 07:13:19;;;;;;;;;;;;;;;8.10;100.00;102651.06;5085037;28;19920;-73
2021/12/13 07:15:46;;;;;;;;;;;;;;;8.03;100.00;102650.66;5084794;28;20018;-73
2021/12/13 07:18:12;;;;;;;;;;;;;;;8.17;100.00;102659.25;5083607;28;19972;-74
2021/12/13 07:20:48;;;;;;;;;;;;;;;8.13;100.00;102651.25;5090326;28;20446;-73
2021/12/13 07:23:14;;;;;;;;;;;;;;;8.13;100.00;102651.25;5082127;28;19916;-74
2021/12/13 07:25:40;;;;;;;;;;;;;;;8.11;100.00;102661.41;5090234;28;19916;-74
2021/12/13 07:28:06;;;;;;;;;;;;;;;8.11;100.00;102660.53;5083690;28;19927;-74
2021/12/13 07:30:33;;;;;;;;;;;;;;;8.08;100.00;102661.22;5090213;28;19994;-74
2021/12/13 07:33:01;;;;;;;;;;;;;;;8.03;100.00;102660.91;5086660;28;19912;-72
2021/12/13 07:35:31;;;;;;;;;;;;;;;8.02;100.00;102663.38;5087776;28;19965;-73
2021/12/13 07:38:03;;;;;;;;;;;;;;;8.03;100.00;102660.91;5086163;28;19974;-73
2021/12/13 07:40:43;;;;;;;;;;;;;;;8.01;100.00;102666.72;5085472;28;20054;-73
2021/12/13 07:43:12;;;;;;;;;;;;;;;8.01;100.00;102667.63;5079263;28;20008;-73
2021/12/13 07:45:49;;;;;;;;;;;;;;;8.07;100.00;102668.03;5085049;28;19923;-73
2021/12/13 07:48:17;;;;;;;;;;;;;;;8.20;100.00;102663.72;5080371;28;19952;-73
2021/12/13 07:50:44;;;;;;;;;;;;;;;8.22;100.00;102675.81;5084240;28;19912;-73
2021/12/13 07:53:13;;;;;;;;;;;;;;;8.12;100.00;102681.13;5084982;28;19912;-73
2021/12/13 07:55:46;;;;;;;;;;;;;;;8.11;100.00;102689.59;5085915;28;19919;-74
2021/12/13 07:58:13;;;;;;;;;;;;;;;8.14;100.00;102681.25;5085490;28;19966;-74
2021/12/13 08:00:39;;;;;;;;;;;;;;;8.12;100.00;102687.91;5079986;28;19924;-74
2021/12/13 08:03:10;;;;;;;;;;;;;;;8.10;100.00;102694.63;5086915;28;20400;-74
2021/12/13 08:05:39;;;;;;;;;;;;;;;8.03;100.00;102690.75;5084936;28;19943;-74
2021/12/13 08:08:06;;;;;;;;;;;;;;;8.06;100.00;102680.72;5084341;28;20048;-74
2021/12/13 08:10:37;;;;;;;;;;;;;;;8.13;100.00;102685.47;5083274;28;19922;-74
2021/12/13 08:13:10;;;;;;;;;;;;;;;8.13;100.00;102680.34;5086065;28;19916;-73
2021/12/13 08:15:50;;;;;;;;;;;;;;;8.21;100.00;102688.56;5087742;28;19922;-73
2021/12/13 08:18:35;;;;;;;;;;;;;;;8.16;100.00;102680.53;5084318;28;19916;-73
2021/12/13 08:21:05;;;;;;;;;;;;;;;8.21;100.00;102688.56;5085976;28;20386;-75
2021/12/13 08:23:35;;;;;;;;;;;;;;;8.17;100.00;102694.25;5087325;28;19994;-74
2021/12/13 08:26:02;;;;;;;;;;;;;;;8.22;100.00;102692.88;5087711;28;19911;-73
2021/12/13 08:28:33;;;;;;;;;;;;;;;8.17;100.00;102684.88;5085397;28;19938;-74
2021/12/13 08:30:59;;;;;;;;;;;;;;;8.14;100.00;102682.13;5088683;28;20421;-73
2021/12/13 08:33:45;;;;;;;;;;;;;;;8.28;100.00;102691.63;5087774;28;19947;-73
2021/12/13 08:36:15;;;;;;;;;;;;;;;8.22;100.00;102688.63;5078670;28;19920;-73
2021/12/13 08:38:49;;;;;;;;;;;;;;;8.23;100.00;102687.84;5085396;28;20377;-74
2021/12/13 08:41:14;;;;;;;;;;;;;;;8.18;100.00;102685.75;5077437;28;19916;-74
2021/12/13 08:43:51;;;;;;;;;;;;;;;8.28;100.00;102683.91;5086463;28;19927;-74
2021/12/13 08:46:35;;;;;;;;;;;;;;;8.25;100.00;102696.56;5084683;28;19950;-73
2021/12/13 08:49:01;;;;;;;;;;;;;;;8.28;100.00;102695.84;5083391;28;19916;-73
2021/12/13 08:51:28;;;;;;;;;;;;;;;8.23;100.00;102694.66;5089991;28;19911;-73
2021/12/13 08:54:12;;;;;;;;;;;;;;;8.20;100.00;102697.03;5081313;28;20286;-74
2021/12/13 08:56:44;;;;;;;;;;;;;;;8.21;100.00;102685.97;5083364;28;20674;-73
2021/12/13 08:59:18;;;;;;;;;;;;;;;8.21;100.00;102685.97;5081322;28;19912;-72
2021/12/13 09:01:49;;;;;;;;;;;;;;;8.21;100.00;102689.44;5080382;28;19915;-73
2021/12/13 09:04:25;;;;;;;;;;;;;;;8.27;100.00;102691.53;5082797;28;20402;-72
2021/12/13 09:06:53;;;;;;;;;;;;;;;8.24;100.00;102689.63;5088406;28;19927;-73
2021/12/13 09:09:19;;;;;;;;;;;;;;;8.21;100.00;102689.44;5081004;28;19916;-74
2021/12/13 09:11:51;;;;;;;;;;;;;;;8.23;100.00;102698.09;5081032;28;19943;-74
2021/12/13 09:14:26;;;;;;;;;;;;;;;8.25;100.00;102698.19;5088298;28;19912;-74
2021/12/13 09:17:07;;;;;;;;;;;;;;;8.25;100.00;102703.31;5084849;28;19926;-73
2021/12/13 09:19:35;;;;;;;;;;;;;;;8.21;100.00;102706.50;5087493;28;19919;-74
2021/12/13 09:22:00;;;;;;;;;;;;;;;8.31;100.00;102709.78;5082113;28;19918;-74
2021/12/13 09:24:39;;;;;;;;;;;;;;;8.27;100.00;102704.34;5085076;28;19912;-73
2021/12/13 09:27:25;;;;;;;;;;;;;;;8.30;100.00;102718.22;5083497;28;19920;-73
2021/12/13 09:29:54;;;;;;;;;;;;;;;8.34;100.00;102714.19;5087727;28;19915;-74
2021/12/13 09:32:23;;;;;;;;;;;;;;;8.36;100.00;102724.59;5085386;28;19949;-74
2021/12/13 09:34:51;;;;;;;;;;;;;;;8.29;100.00;102726.69;5088810;28;19974;-73
2021/12/13 09:37:16;;;;;;;;;;;;;;;8.32;100.00;102736.28;5088171;28;20007;-74
2021/12/13 09:39:41;;;;;;;;;;;;;;;8.28;100.00;102742.88;5087428;28;20367;-74
2021/12/13 09:42:12;;;;;;;;;;;;;;;8.34;100.00;102753.53;5081819;28;19934;-74
2021/12/13 09:44:44;;;;;;;;;;;;;;;8.25;100.00;102755.50;5084008;28;19918;-74
2021/12/13 09:47:10;;;;;;;;;;;;;;;8.24;100.00;102760.50;5086274;28;19973;-73
2021/12/13 09:49:38;;;;;;;;;;;;;;;8.29;100.00;102761.69;5082293;28;19939;-74
2021/12/13 09:52:24;;;;;;;;;;;;;;;8.32;100.00;102770.50;5084188;28;19923;-74
2021/12/13 09:54:55;;;;;;;;;;;;;;;8.29;100.00;102770.28;5080954;28;20351;-74
2021/12/13 09:57:32;;;;;;;;;;;;;;;8.31;100.00;102784.09;5082520;28;20392;-73
2021/12/13 09:59:58;;;;;;;;;;;;;;;8.41;100.00;102780.50;5084081;28;20208;-74
2021/12/13 10:02:36;;;;;;;;;;;;;;;8.43;100.00;102776.34;5086166;28;20356;-75
2021/12/13 10:05:07;;;;;;;;;;;;;;;8.54;100.00;102771.94;5087392;28;19912;-73
2021/12/13 10:07:33;;;;;;;;;;;;;;;8.44;100.00;102769.59;5086465;28;20276;-73
2021/12/13 10:10:28;;;;;;;;;;;;;;;8.44;100.00;102772.16;5086175;28;19985;-73
2021/12/13 10:12:57;;;;;;;;;;;;;;;8.46;100.00;102776.56;5078501;28;20286;-73
2021/12/13 10:15:33;;;;;;;;;;;;;;;8.52;100.00;102765.84;5083327;28;20310;-73
2021/12/13 10:18:00;;;;;;;;;;;;;;;8.44;100.00;102762.78;5072630;28;19913;-73
2021/12/13 10:20:46;;;;;;;;;;;;;;;8.46;100.00;102761.19;5079506;28;19973;-73
2021/12/13 10:23:13;;;;;;;;;;;;;;;8.46;100.00;102760.31;5076380;28;19912;-74
2021/12/13 10:25:42;;;;;;;;;;;;;;;8.59;100.00;102760.31;5083905;28;19912;-74
2021/12/13 10:28:09;;;;;;;;;;;;;;;8.53;100.00;102765.06;5085937;28;19911;-74
2021/12/13 10:30:37;;;;;;;;;;;;;;;8.55;100.00;102755.78;5086502;28;19963;-74
2021/12/13 10:33:04;;;;;;;;;;;;;;;8.56;100.00;102750.78;5084557;28;20027;-74
2021/12/13 10:35:39;;;;;;;;;;;;;;;8.61;100.00;102748.50;5086865;28;20952;-73
2021/12/13 10:38:07;;;;;;;;;;;;;;;8.63;100.00;102749.50;5084323;28;19932;-73
2021/12/13 10:40:38;;;;;;;;;;;;;;;8.67;100.00;102755.69;5086010;28;20026;-73
2021/12/13 10:43:06;;;;;;;;;;;;;;;8.63;100.00;102756.31;5082977;28;20028;-73
2021/12/13 10:45:34;;;;;;;;;;;;;;;8.60;100.00;102757.84;5084929;28;19927;-73
2021/12/13 10:48:01;;;;;;;;;;;;;;;8.58;100.00;102756.88;5089059;28;20370;-73
2021/12/13 10:50:32;;;;;;;;;;;;;;;8.60;100.00;102755.28;5091120;28;19919;-74
2021/12/13 10:52:58;;;;;;;;;;;;;;;8.57;100.00;102752.53;5083983;28;19935;-73
2021/12/13 10:55:31;;;;;;;;;;;;;;;8.65;100.00;102753.03;5089925;28;20375;-74
2021/12/13 10:57:57;;;;;;;;;;;;;;;8.65;100.00;102747.03;5090365;28;19911;-74
2021/12/13 11:00:27;;;;;;;;;;;;;;;8.76;100.00;102752.06;5089211;28;20290;-73
2021/12/13 11:02:55;;;;;;;;;;;;;;;8.74;100.00;102745.09;5091949;28;19939;-72
2021/12/13 11:05:21;;;;;;;;;;;;;;;8.76;100.00;102739.25;5089315;28;19955;-73
2021/12/13 11:07:48;;;;;;;;;;;;;;;8.77;100.00;102747.84;5090198;28;20390;-73
2021/12/13 11:10:15;;;;;;;;;;;;;;;8.97;100.00;102739.75;5091390;28;19931;-73
2021/12/13 11:12:42;;;;;;;;;;;;;;;8.88;100.00;102745.97;5091298;28;19957;-73
2021/12/13 11:15:13;;;;;;;;;;;;;;;8.96;100.00;102737.97;5088076;28;20375;-72
2021/12/13 11:17:39;;;;;;;;;;;;;;;8.84;100.00;102739.75;5090166;28;19931;-72
2021/12/13 11:20:10;;;;;;;;;;;;;;;8.83;100.00;102735.41;5090447;28;19931;-72
2021/12/13 11:22:36;;;;;;;;;;;;;;;8.93;100.00;102730.09;5089269;28;20323;-73
2021/12/13 11:25:08;;;;;;;;;;;;;;;8.90;100.00;102729.88;5089469;28;20424;-73
2021/12/13 11:27:33;;;;;;;;;;;;;;;8.97;100.00;102731.16;5090938;28;19916;-73
2021/12/13 11:30:00;;;;;;;;;;;;;;;8.94;100.00;102737.00;5088557;28;19919;-74
2021/12/13 11:32:34;;;;;;;;;;;;;;;8.91;100.00;102733.31;5091533;28;19973;-73
2021/12/13 11:35:15;;;;;;;;;;;;;;;8.93;100.00;102742.91;5090419;28;19916;-73
2021/12/13 11:37:59;;;;;;;;;;;;;;;8.96;100.00;102737.06;5087454;28;20014;-73
2021/12/13 11:40:43;;;;;;;;;;;;;;;8.94;100.00;102730.97;5090176;28;20402;-73
2021/12/13 11:43:11;;;;;;;;;;;;;;;8.99;100.00;102729.59;5087053;28;20422;-73
2021/12/13 11:45:55;;;;;;;;;;;;;;;9.06;100.00;102726.63;5088606;28;19941;-73
2021/12/13 11:48:36;;;;;;;;;;;;;;;8.96;100.00;102731.94;5087726;28;20038;-73
2021/12/13 11:51:20;;;;;;;;;;;;;;;9.01;100.00;102734.03;5089932;28;19934;-73
2021/12/13 11:53:58;;;;;;;;;;;;;;;8.96;100.00;102735.41;5086877;28;19920;-74
2021/12/13 11:56:37;;;;;;;;;;;;;;;8.95;100.00;102723.38;5086254;28;20366;-73
2021/12/13 11:59:22;;;;;;;;;;;;;;;9.06;100.00;102719.81;5084954;28;19918;-74
2021/12/13 12:01:57;;;;;;;;;;;;;;;8.98;100.00;102725.22;5085425;28;20465;-73
2021/12/13 12:04:41;;;;;;;;;;;;;;;9.03;100.00;102721.28;5085784;28;20002;-71
2021/12/13 12:07:25;;;;;;;;;;;;;;;8.96;100.00;102717.44;5085535;28;19924;-72
2021/12/13 12:10:03;;;;;;;;;;;;;;;8.96;100.00;102720.00;5086531;28;19916;-74
2021/12/13 12:12:28;;;;;;;;;;;;;;;8.95;100.00;102715.66;5089795;28;19912;-73
2021/12/13 12:15:00;;;;;;;;;;;;;;;9.04;100.00;102715.34;5088825;28;19998;-71
2021/12/13 12:17:26;;;;;;;;;;;;;;;9.12;100.00;102709.06;5079707;28;19923;-71
2021/12/13 12:19:52;;;;;;;;;;;;;;;9.02;100.00;102711.81;5084931;28;19920;-69
2021/12/13 12:22:18;;;;;;;;;;;;;;;9.02;100.00;102710.13;5088706;28;19930;-71
2021/12/13 12:24:47;;;;;;;;;;;;;;;9.05;100.00;102712.91;5080064;28;19912;-72
2021/12/13 12:27:15;;;;;;;;;;;;;;;9.04;100.00;102717.91;5089492;28;19912;-72
2021/12/13 12:29:44;;;;;;;;;;;;;;;9.02;100.00;102720.41;5085390;28;19977;-71
2021/12/13 12:32:15;;;;;;;;;;;;;;;8.98;100.00;102715.88;5086680;28;19930;-71
2021/12/13 12:34:46;;;;;;;;;;;;;;;8.99;100.00;102715.09;5087923;28;19912;-71
2021/12/13 12:37:22;;;;;;;;;;;;;;;8.99;100.00;102720.22;5086392;28;19907;-72
2021/12/13 12:39:50;;;;;;;;;;;;;;;8.95;100.00;102720.81;5086912;28;20426;-73
2021/12/13 12:42:28;;;;;;;;;;;;;;;8.95;100.00;102720.81;5086373;28;19912;-71
2021/12/13 12:44:53;;;;;;;;;;;;;;;9.09;100.00;102713.97;5090491;28;19912;-70
2021/12/13 12:47:19;;;;;;;;;;;;;;;9.00;100.00;102716.84;5080582;28;19923;-73
2021/12/13 12:49:47;;;;;;;;;;;;;;;8.98;100.00;102715.88;5086468;28;19922;-72
2021/12/13 12:52:12;;;;;;;;;;;;;;;8.94;100.00;102710.44;5083094;28;19920;-71
2021/12/13 12:54:38;;;;;;;;;;;;;;;8.93;100.00;102719.81;5084074;28;19916;-70
2021/12/13 12:57:04;;;;;;;;;;;;;;;8.95;100.00;102718.25;5087674;28;19923;-71
2021/12/13 12:59:32;;;;;;;;;;;;;;;8.93;100.00;102724.97;5078916;28;19949;-70